sensor_id;sensor_type;location;lat;lon;timestamp;P1;P2;P0
57049;PMS7003;42935;50.966;16.992;2024-02-23T00:00:41;1;0;0
57049;PMS7003;42935;50.966;16.992;2024-02-23T00:04:03;2;2;2
57049;PMS7003;42935;50.966;16.992;2024-02-23T00:07:23;1;1;1
57049;PMS7003;42935;50.966;16.992;2024-02-23T00:10:46;2;1;1
57049;PMS7003;42935;50.966;16.992;2024-02-23T00:14:05;0;0;0
57049;PMS7003;42935;50.966;16.992;2024-02-23T00:17:25;1;1;1
57049;PMS7003;42935;50.966;16.992;2024-02-23T00:20:44;0;0;0
57049;PMS7003;42935;50.966;16.992;2024-02-23T00:24:04;1;1;0
57049;PMS7003;42935;50.966;16.992;2024-02-23T00:27:26;0;0;0
57049;PMS7003;42935;50.966;16.992;2024-02-23T00:30:47;2;0;0
57049;PMS7003;42935;50.966;16.992;2024-02-23T00:34:11;1;0;0
57049;PMS7003;42935;50.966;16.992;2024-02-23T00:37:31;0;0;0
57049;PMS7003;42935;50.966;16.992;2024-02-23T00:40:58;0;0;0
57049;PMS7003;42935;50.966;16.992;2024-02-23T00:44:28;1;0;0
57049;PMS7003;42935;50.966;16.992;2024-02-23T00:47:49;1;0;0
57049;PMS7003;42935;50.966;16.992;2024-02-23T00:51:11;2;1;1
57049;PMS7003;42935;50.966;16.992;2024-02-23T00:54:28;1;0;0
57049;PMS7003;42935;50.966;16.992;2024-02-23T00:57:45;1;1;0
57049;PMS7003;42935;50.966;16.992;2024-02-23T01:01:02;1;1;0
57049;PMS7003;42935;50.966;16.992;2024-02-23T01:04:22;1;1;1
57049;PMS7003;42935;50.966;16.992;2024-02-23T01:07:44;2;1;1
57049;PMS7003;42935;50.966;16.992;2024-02-23T01:11:06;2;1;1
57049;PMS7003;42935;50.966;16.992;2024-02-23T01:14:27;0;0;0
57049;PMS7003;42935;50.966;16.992;2024-02-23T01:17:50;2;1;1
57049;PMS7003;42935;50.966;16.992;2024-02-23T01:21:12;2;1;1
57049;PMS7003;42935;50.966;16.992;2024-02-23T01:24:35;2;1;1
57049;PMS7003;42935;50.966;16.992;2024-02-23T01:27:56;2;2;1
57049;PMS7003;42935;50.966;16.992;2024-02-23T01:31:16;2;1;1
57049;PMS7003;42935;50.966;16.992;2024-02-23T01:34:34;2;1;1
57049;PMS7003;42935;50.966;16.992;2024-02-23T01:37:55;2;2;1
57049;PMS7003;42935;50.966;16.992;2024-02-23T01:41:12;4;2;1
57049;PMS7003;42935;50.966;16.992;2024-02-23T01:44:33;3;2;1
57049;PMS7003;42935;50.966;16.992;2024-02-23T01:47:53;3;3;2
57049;PMS7003;42935;50.966;16.992;2024-02-23T01:51:17;7;3;3
57049;PMS7003;42935;50.966;16.992;2024-02-23T01:54:35;5;3;2
57049;PMS7003;42935;50.966;16.992;2024-02-23T01:57:58;4;3;3
57049;PMS7003;42935;50.966;16.992;2024-02-23T02:01:20;7;4;4
57049;PMS7003;42935;50.966;16.992;2024-02-23T02:04:43;6;5;3
57049;PMS7003;42935;50.966;16.992;2024-02-23T02:08:05;8;6;4
57049;PMS7003;42935;50.966;16.992;2024-02-23T02:11:27;7;5;4
57049;PMS7003;42935;50.966;16.992;2024-02-23T02:14:49;9;6;4
57049;PMS7003;42935;50.966;16.992;2024-02-23T02:18:11;7;6;5
57049;PMS7003;42935;50.966;16.992;2024-02-23T02:21:30;8;7;5
57049;PMS7003;42935;50.966;16.992;2024-02-23T02:24:50;9;7;6
57049;PMS7003;42935;50.966;16.992;2024-02-23T02:28:11;11;8;6
57049;PMS7003;42935;50.966;16.992;2024-02-23T02:31:32;9;8;6
57049;PMS7003;42935;50.966;16.992;2024-02-23T02:34:57;6;6;5
57049;PMS7003;42935;50.966;16.992;2024-02-23T02:38:19;8;6;4
57049;PMS7003;42935;50.966;16.992;2024-02-23T02:41:39;12;8;6
57049;PMS7003;42935;50.966;16.992;2024-02-23T02:45:02;8;7;6
57049;PMS7003;42935;50.966;16.992;2024-02-23T02:48:21;8;7;5
57049;PMS7003;42935;50.966;16.992;2024-02-23T02:51:43;9;8;7
57049;PMS7003;42935;50.966;16.992;2024-02-23T02:55:03;9;6;5
57049;PMS7003;42935;50.966;16.992;2024-02-23T02:58:22;8;6;5
57049;PMS7003;42935;50.966;16.992;2024-02-23T03:01:38;8;7;5
57049;PMS7003;42935;50.966;16.992;2024-02-23T03:04:56;7;7;6
57049;PMS7003;42935;50.966;16.992;2024-02-23T03:08:18;6;6;4
57049;PMS7003;42935;50.966;16.992;2024-02-23T03:11:39;7;6;5
57049;PMS7003;42935;50.966;16.992;2024-02-23T03:15:00;8;5;4
57049;PMS7003;42935;50.966;16.992;2024-02-23T03:18:25;7;7;5
57049;PMS7003;42935;50.966;16.992;2024-02-23T03:21:48;6;5;4
57049;PMS7003;42935;50.966;16.992;2024-02-23T03:25:07;7;6;5
57049;PMS7003;42935;50.966;16.992;2024-02-23T03:28:30;8;8;6
57049;PMS7003;42935;50.966;16.992;2024-02-23T03:31:49;8;5;4
57049;PMS7003;42935;50.966;16.992;2024-02-23T03:35:16;9;7;5
57049;PMS7003;42935;50.966;16.992;2024-02-23T03:38:34;7;7;5
57049;PMS7003;42935;50.966;16.992;2024-02-23T03:41:55;7;7;4
57049;PMS7003;42935;50.966;16.992;2024-02-23T03:45:14;6;6;4
57049;PMS7003;42935;50.966;16.992;2024-02-23T03:48:34;5;5;4
57049;PMS7003;42935;50.966;16.992;2024-02-23T03:51:52;5;5;5
57049;PMS7003;42935;50.966;16.992;2024-02-23T03:55:13;6;5;3
57049;PMS7003;42935;50.966;16.992;2024-02-23T03:58:33;6;5;3
57049;PMS7003;42935;50.966;16.992;2024-02-23T04:01:54;5;5;3
57049;PMS7003;42935;50.966;16.992;2024-02-23T04:05:11;8;7;6
57049;PMS7003;42935;50.966;16.992;2024-02-23T04:08:32;11;7;5
57049;PMS7003;42935;50.966;16.992;2024-02-23T04:11:51;9;6;5
57049;PMS7003;42935;50.966;16.992;2024-02-23T04:15:41;10;8;6
57049;PMS7003;42935;50.966;16.992;2024-02-23T04:18:57;11;10;7
57049;PMS7003;42935;50.966;16.992;2024-02-23T04:22:20;9;7;6
57049;PMS7003;42935;50.966;16.992;2024-02-23T04:25:43;11;8;6
57049;PMS7003;42935;50.966;16.992;2024-02-23T04:29:03;6;6;4
57049;PMS7003;42935;50.966;16.992;2024-02-23T04:32:24;10;8;7
57049;PMS7003;42935;50.966;16.992;2024-02-23T04:35:46;8;8;6
57049;PMS7003;42935;50.966;16.992;2024-02-23T04:39:04;9;8;7
57049;PMS7003;42935;50.966;16.992;2024-02-23T04:42:21;9;9;7
57049;PMS7003;42935;50.966;16.992;2024-02-23T04:46:10;10;9;7
57049;PMS7003;42935;50.966;16.992;2024-02-23T04:49:32;10;9;8
57049;PMS7003;42935;50.966;16.992;2024-02-23T04:52:53;8;8;6
57049;PMS7003;42935;50.966;16.992;2024-02-23T04:56:14;10;7;6
57049;PMS7003;42935;50.966;16.992;2024-02-23T04:59:36;11;8;7
57049;PMS7003;42935;50.966;16.992;2024-02-23T05:02:53;8;8;6
57049;PMS7003;42935;50.966;16.992;2024-02-23T05:06:13;9;9;7
57049;PMS7003;42935;50.966;16.992;2024-02-23T05:09:35;8;8;6
57049;PMS7003;42935;50.966;16.992;2024-02-23T05:12:57;8;8;7
57049;PMS7003;42935;50.966;16.992;2024-02-23T05:16:17;11;9;7
57049;PMS7003;42935;50.966;16.992;2024-02-23T05:19:35;12;9;7
57049;PMS7003;42935;50.966;16.992;2024-02-23T05:22:56;8;8;6
57049;PMS7003;42935;50.966;16.992;2024-02-23T05:26:13;11;9;7
57049;PMS7003;42935;50.966;16.992;2024-02-23T05:29:32;13;9;8
57049;PMS7003;42935;50.966;16.992;2024-02-23T05:32:50;10;9;7
57049;PMS7003;42935;50.966;16.992;2024-02-23T05:36:09;9;8;6
57049;PMS7003;42935;50.966;16.992;2024-02-23T05:39:28;7;7;6
57049;PMS7003;42935;50.966;16.992;2024-02-23T05:42:48;7;6;5
57049;PMS7003;42935;50.966;16.992;2024-02-23T05:46:09;9;7;5
57049;PMS7003;42935;50.966;16.992;2024-02-23T05:49:29;7;7;5
57049;PMS7003;42935;50.966;16.992;2024-02-23T05:52:50;6;5;3
57049;PMS7003;42935;50.966;16.992;2024-02-23T05:56:12;5;4;3
57049;PMS7003;42935;50.966;16.992;2024-02-23T05:59:32;6;4;3
57049;PMS7003;42935;50.966;16.992;2024-02-23T06:02:53;4;3;3
57049;PMS7003;42935;50.966;16.992;2024-02-23T06:06:18;4;4;4
57049;PMS7003;42935;50.966;16.992;2024-02-23T06:09:40;4;3;2
57049;PMS7003;42935;50.966;16.992;2024-02-23T06:13:02;4;4;2
57049;PMS7003;42935;50.966;16.992;2024-02-23T06:16:22;3;3;2
57049;PMS7003;42935;50.966;16.992;2024-02-23T06:19:41;3;2;2
57049;PMS7003;42935;50.966;16.992;2024-02-23T06:23:07;3;3;2
57049;PMS7003;42935;50.966;16.992;2024-02-23T06:26:28;4;3;2
57049;PMS7003;42935;50.966;16.992;2024-02-23T06:29:47;3;3;2
57049;PMS7003;42935;50.966;16.992;2024-02-23T06:33:04;1;1;1
57049;PMS7003;42935;50.966;16.992;2024-02-23T06:36:25;4;2;2
57049;PMS7003;42935;50.966;16.992;2024-02-23T06:39:48;2;2;1
57049;PMS7003;42935;50.966;16.992;2024-02-23T06:43:17;2;2;2
57049;PMS7003;42935;50.966;16.992;2024-02-23T06:46:38;4;2;1
57049;PMS7003;42935;50.966;16.992;2024-02-23T06:49:56;3;3;3
57049;PMS7003;42935;50.966;16.992;2024-02-23T06:53:19;2;2;2
57049;PMS7003;42935;50.966;16.992;2024-02-23T06:56:47;2;2;2
57049;PMS7003;42935;50.966;16.992;2024-02-23T07:00:09;4;2;1
57049;PMS7003;42935;50.966;16.992;2024-02-23T07:03:27;2;2;1
57049;PMS7003;42935;50.966;16.992;2024-02-23T07:06:48;1;1;1
57049;PMS7003;42935;50.966;16.992;2024-02-23T07:10:05;5;2;2
57049;PMS7003;42935;50.966;16.992;2024-02-23T07:13:24;3;2;1
57049;PMS7003;42935;50.966;16.992;2024-02-23T07:16:41;3;3;2
57049;PMS7003;42935;50.966;16.992;2024-02-23T07:20:02;4;3;2
57049;PMS7003;42935;50.966;16.992;2024-02-23T07:23:23;4;2;2
57049;PMS7003;42935;50.966;16.992;2024-02-23T07:26:43;3;2;2
57049;PMS7003;42935;50.966;16.992;2024-02-23T07:30:00;3;2;1
57049;PMS7003;42935;50.966;16.992;2024-02-23T07:33:22;2;2;1
57049;PMS7003;42935;50.966;16.992;2024-02-23T07:36:41;1;1;1
57049;PMS7003;42935;50.966;16.992;2024-02-23T07:40:00;2;1;1
57049;PMS7003;42935;50.966;16.992;2024-02-23T07:43:20;1;1;1
57049;PMS7003;42935;50.966;16.992;2024-02-23T07:46:39;2;2;1
57049;PMS7003;42935;50.966;16.992;2024-02-23T07:49:58;2;2;2
57049;PMS7003;42935;50.966;16.992;2024-02-23T07:53:17;3;2;2
57049;PMS7003;42935;50.966;16.992;2024-02-23T07:57:09;4;3;2
57049;PMS7003;42935;50.966;16.992;2024-02-23T08:00:30;5;4;3
57049;PMS7003;42935;50.966;16.992;2024-02-23T08:03:52;5;4;3
57049;PMS7003;42935;50.966;16.992;2024-02-23T08:07:10;7;5;4
57049;PMS7003;42935;50.966;16.992;2024-02-23T08:10:27;5;5;2
57049;PMS7003;42935;50.966;16.992;2024-02-23T08:13:44;8;7;6
57049;PMS7003;42935;50.966;16.992;2024-02-23T08:17:05;8;5;4
57049;PMS7003;42935;50.966;16.992;2024-02-23T08:20:22;6;5;5
57049;PMS7003;42935;50.966;16.992;2024-02-23T08:23:42;6;6;4
57049;PMS7003;42935;50.966;16.992;2024-02-23T08:27:02;9;8;6
57049;PMS7003;42935;50.966;16.992;2024-02-23T08:30:25;12;9;7
57049;PMS7003;42935;50.966;16.992;2024-02-23T08:33:46;10;7;5
57049;PMS7003;42935;50.966;16.992;2024-02-23T08:37:06;10;7;5
57049;PMS7003;42935;50.966;16.992;2024-02-23T08:40:25;6;6;4
57049;PMS7003;42935;50.966;16.992;2024-02-23T08:43:46;6;5;4
57049;PMS7003;42935;50.966;16.992;2024-02-23T08:47:11;6;5;4
57049;PMS7003;42935;50.966;16.992;2024-02-23T08:50:29;3;3;2
57049;PMS7003;42935;50.966;16.992;2024-02-23T08:53:46;4;3;2
57049;PMS7003;42935;50.966;16.992;2024-02-23T08:57:05;3;3;2
57049;PMS7003;42935;50.966;16.992;2024-02-23T09:00:24;4;3;3
57049;PMS7003;42935;50.966;16.992;2024-02-23T09:03:46;3;3;2
57049;PMS7003;42935;50.966;16.992;2024-02-23T09:07:05;4;3;2
57049;PMS7003;42935;50.966;16.992;2024-02-23T09:10:23;4;3;3
57049;PMS7003;42935;50.966;16.992;2024-02-23T09:13:55;4;2;1
57049;PMS7003;42935;50.966;16.992;2024-02-23T09:17:20;0;0;0
57049;PMS7003;42935;50.966;16.992;2024-02-23T09:21:14;2;1;0
57049;PMS7003;42935;50.966;16.992;2024-02-23T09:24:38;0;0;0
57049;PMS7003;42935;50.966;16.992;2024-02-23T09:28:00;1;0;0
57049;PMS7003;42935;50.966;16.992;2024-02-23T09:31:19;1;0;0
57049;PMS7003;42935;50.966;16.992;2024-02-23T09:34:40;0;0;0
57049;PMS7003;42935;50.966;16.992;2024-02-23T09:38:04;0;0;0
57049;PMS7003;42935;50.966;16.992;2024-02-23T09:41:23;1;0;0
57049;PMS7003;42935;50.966;16.992;2024-02-23T09:44:43;0;0;0
57049;PMS7003;42935;50.966;16.992;2024-02-23T09:48:08;2;0;0
57049;PMS7003;42935;50.966;16.992;2024-02-23T09:51:35;0;0;0
57049;PMS7003;42935;50.966;16.992;2024-02-23T09:54:59;0;0;0
57049;PMS7003;42935;50.966;16.992;2024-02-23T09:58:19;0;0;0
57049;PMS7003;42935;50.966;16.992;2024-02-23T10:01:43;0;0;0
57049;PMS7003;42935;50.966;16.992;2024-02-23T10:05:01;0;0;0
57049;PMS7003;42935;50.966;16.992;2024-02-23T10:08:24;1;0;0
57049;PMS7003;42935;50.966;16.992;2024-02-23T10:11:51;1;0;0
57049;PMS7003;42935;50.966;16.992;2024-02-23T10:15:11;0;0;0
57049;PMS7003;42935;50.966;16.992;2024-02-23T10:19:00;1;1;1
57049;PMS7003;42935;50.966;16.992;2024-02-23T10:22:22;2;1;0
57049;PMS7003;42935;50.966;16.992;2024-02-23T10:25:42;1;0;0
57049;PMS7003;42935;50.966;16.992;2024-02-23T10:29:04;2;1;0
57049;PMS7003;42935;50.966;16.992;2024-02-23T10:32:27;1;0;0
57049;PMS7003;42935;50.966;16.992;2024-02-23T10:35:53;1;1;0
57049;PMS7003;42935;50.966;16.992;2024-02-23T10:39:21;1;0;0
57049;PMS7003;42935;50.966;16.992;2024-02-23T10:42:46;0;0;0
57049;PMS7003;42935;50.966;16.992;2024-02-23T10:46:11;0;0;0
57049;PMS7003;42935;50.966;16.992;2024-02-23T10:49:29;0;0;0
57049;PMS7003;42935;50.966;16.992;2024-02-23T10:52:51;0;0;0
57049;PMS7003;42935;50.966;16.992;2024-02-23T10:56:09;0;0;0
57049;PMS7003;42935;50.966;16.992;2024-02-23T10:59:29;0;0;0
57049;PMS7003;42935;50.966;16.992;2024-02-23T11:02:49;0;0;0
57049;PMS7003;42935;50.966;16.992;2024-02-23T11:06:13;2;0;0
57049;PMS7003;42935;50.966;16.992;2024-02-23T11:09:41;0;0;0
57049;PMS7003;42935;50.966;16.992;2024-02-23T11:13:07;0;0;0
57049;PMS7003;42935;50.966;16.992;2024-02-23T11:16:31;0;0;0
57049;PMS7003;42935;50.966;16.992;2024-02-23T11:19:51;0;0;0
57049;PMS7003;42935;50.966;16.992;2024-02-23T11:23:12;0;0;0
57049;PMS7003;42935;50.966;16.992;2024-02-23T11:26:37;1;0;0
57049;PMS7003;42935;50.966;16.992;2024-02-23T11:29:59;0;0;0
57049;PMS7003;42935;50.966;16.992;2024-02-23T11:33:28;1;0;0
57049;PMS7003;42935;50.966;16.992;2024-02-23T11:36:50;1;0;0
57049;PMS7003;42935;50.966;16.992;2024-02-23T11:40:08;0;0;0
57049;PMS7003;42935;50.966;16.992;2024-02-23T11:43:27;2;1;1
57049;PMS7003;42935;50.966;16.992;2024-02-23T11:46:48;1;1;0
57049;PMS7003;42935;50.966;16.992;2024-02-23T11:50:07;0;0;0
57049;PMS7003;42935;50.966;16.992;2024-02-23T11:53:59;0;0;0
57049;PMS7003;42935;50.966;16.992;2024-02-23T11:57:18;0;0;0
57049;PMS7003;42935;50.966;16.992;2024-02-23T12:00:35;0;0;0
57049;PMS7003;42935;50.966;16.992;2024-02-23T12:04:06;0;0;0
57049;PMS7003;42935;50.966;16.992;2024-02-23T12:07:21;0;0;0
57049;PMS7003;42935;50.966;16.992;2024-02-23T12:10:45;2;0;0
57049;PMS7003;42935;50.966;16.992;2024-02-23T12:14:07;0;0;0
57049;PMS7003;42935;50.966;16.992;2024-02-23T12:17:31;0;0;0
57049;PMS7003;42935;50.966;16.992;2024-02-23T12:20:59;1;1;1
57049;PMS7003;42935;50.966;16.992;2024-02-23T12:24:22;0;0;0
57049;PMS7003;42935;50.966;16.992;2024-02-23T12:27:53;1;0;0
57049;PMS7003;42935;50.966;16.992;2024-02-23T12:31:23;1;1;0
57049;PMS7003;42935;50.966;16.992;2024-02-23T12:34:43;1;1;0
57049;PMS7003;42935;50.966;16.992;2024-02-23T12:38:05;1;0;0
57049;PMS7003;42935;50.966;16.992;2024-02-23T12:41:22;1;0;0
57049;PMS7003;42935;50.966;16.992;2024-02-23T12:44:39;1;0;0
57049;PMS7003;42935;50.966;16.992;2024-02-23T12:48:00;2;2;1
57049;PMS7003;42935;50.966;16.992;2024-02-23T12:51:24;3;1;1
57049;PMS7003;42935;50.966;16.992;2024-02-23T12:54:44;2;2;2
57049;PMS7003;42935;50.966;16.992;2024-02-23T12:58:03;1;1;0
57049;PMS7003;42935;50.966;16.992;2024-02-23T13:01:25;0;0;0
57049;PMS7003;42935;50.966;16.992;2024-02-23T13:04:47;0;0;0
57049;PMS7003;42935;50.966;16.992;2024-02-23T13:08:09;0;0;0
57049;PMS7003;42935;50.966;16.992;2024-02-23T13:11:31;3;0;0
57049;PMS7003;42935;50.966;16.992;2024-02-23T13:14:50;0;0;0
57049;PMS7003;42935;50.966;16.992;2024-02-23T13:18:12;0;0;0
57049;PMS7003;42935;50.966;16.992;2024-02-23T13:21:28;0;0;0
57049;PMS7003;42935;50.966;16.992;2024-02-23T13:25:13;0;0;0
57049;PMS7003;42935;50.966;16.992;2024-02-23T13:29:05;2;0;0
57049;PMS7003;42935;50.966;16.992;2024-02-23T13:32:52;2;1;1
57049;PMS7003;42935;50.966;16.992;2024-02-23T13:36:13;2;0;0
57049;PMS7003;42935;50.966;16.992;2024-02-23T13:39:30;1;1;0
57049;PMS7003;42935;50.966;16.992;2024-02-23T13:42:50;2;0;0
57049;PMS7003;42935;50.966;16.992;2024-02-23T13:46:22;2;1;1
57049;PMS7003;42935;50.966;16.992;2024-02-23T13:49:40;1;1;0
57049;PMS7003;42935;50.966;16.992;2024-02-23T13:53:01;4;2;1
57049;PMS7003;42935;50.966;16.992;2024-02-23T13:56:20;2;2;2
57049;PMS7003;42935;50.966;16.992;2024-02-23T13:59:38;1;1;1
57049;PMS7003;42935;50.966;16.992;2024-02-23T14:02:59;1;1;1
57049;PMS7003;42935;50.966;16.992;2024-02-23T14:06:18;1;1;1
57049;PMS7003;42935;50.966;16.992;2024-02-23T14:09:36;0;0;0
57049;PMS7003;42935;50.966;16.992;2024-02-23T14:12:58;0;0;0
57049;PMS7003;42935;50.966;16.992;2024-02-23T14:16:16;1;1;0
57049;PMS7003;42935;50.966;16.992;2024-02-23T14:19:37;0;0;0
57049;PMS7003;42935;50.966;16.992;2024-02-23T14:23:29;0;0;0
57049;PMS7003;42935;50.966;16.992;2024-02-23T14:26:48;1;0;0
57049;PMS7003;42935;50.966;16.992;2024-02-23T14:30:06;1;1;0
57049;PMS7003;42935;50.966;16.992;2024-02-23T14:33:58;1;0;0
57049;PMS7003;42935;50.966;16.992;2024-02-23T14:37:26;0;0;0
57049;PMS7003;42935;50.966;16.992;2024-02-23T14:40:47;1;0;0
57049;PMS7003;42935;50.966;16.992;2024-02-23T14:44:06;1;0;0
57049;PMS7003;42935;50.966;16.992;2024-02-23T14:48:00;0;0;0
57049;PMS7003;42935;50.966;16.992;2024-02-23T14:51:20;0;0;0
57049;PMS7003;42935;50.966;16.992;2024-02-23T14:54:42;0;0;0
57049;PMS7003;42935;50.966;16.992;2024-02-23T14:58:10;0;0;0
57049;PMS7003;42935;50.966;16.992;2024-02-23T15:01:28;0;0;0
57049;PMS7003;42935;50.966;16.992;2024-02-23T15:04:47;0;0;0
57049;PMS7003;42935;50.966;16.992;2024-02-23T15:08:05;1;0;0
57049;PMS7003;42935;50.966;16.992;2024-02-23T15:11:27;0;0;0
57049;PMS7003;42935;50.966;16.992;2024-02-23T15:14:44;0;0;0
57049;PMS7003;42935;50.966;16.992;2024-02-23T15:18:34;0;0;0
57049;PMS7003;42935;50.966;16.992;2024-02-23T15:21:51;0;0;0
57049;PMS7003;42935;50.966;16.992;2024-02-23T15:25:09;0;0;0
57049;PMS7003;42935;50.966;16.992;2024-02-23T15:28:27;0;0;0
57049;PMS7003;42935;50.966;16.992;2024-02-23T15:31:48;1;0;0
57049;PMS7003;42935;50.966;16.992;2024-02-23T15:35:08;2;1;1
57049;PMS7003;42935;50.966;16.992;2024-02-23T15:38:26;2;1;1
57049;PMS7003;42935;50.966;16.992;2024-02-23T15:41:47;3;1;0
57049;PMS7003;42935;50.966;16.992;2024-02-23T15:45:09;2;1;0
57049;PMS7003;42935;50.966;16.992;2024-02-23T15:48:31;1;1;1
57049;PMS7003;42935;50.966;16.992;2024-02-23T15:51:53;1;1;1
57049;PMS7003;42935;50.966;16.992;2024-02-23T15:55:42;6;3;2
57049;PMS7003;42935;50.966;16.992;2024-02-23T15:58:59;5;2;1
57049;PMS7003;42935;50.966;16.992;2024-02-23T16:02:24;6;6;4
57049;PMS7003;42935;50.966;16.992;2024-02-23T16:05:47;7;6;3
57049;PMS7003;42935;50.966;16.992;2024-02-23T16:09:14;9;7;3
57049;PMS7003;42935;50.966;16.992;2024-02-23T16:12:38;9;5;3
57049;PMS7003;42935;50.966;16.992;2024-02-23T16:16:10;7;6;5
57049;PMS7003;42935;50.966;16.992;2024-02-23T16:19:33;9;6;4
57049;PMS7003;42935;50.966;16.992;2024-02-23T16:23:24;11;6;5
57049;PMS7003;42935;50.966;16.992;2024-02-23T16:26:41;10;7;5
57049;PMS7003;42935;50.966;16.992;2024-02-23T16:29:58;7;6;4
57049;PMS7003;42935;50.966;16.992;2024-02-23T16:33:21;10;6;4
57049;PMS7003;42935;50.966;16.992;2024-02-23T16:36:47;10;6;3
57049;PMS7003;42935;50.966;16.992;2024-02-23T16:40:17;7;6;4
57049;PMS7003;42935;50.966;16.992;2024-02-23T16:43:47;6;5;3
57049;PMS7003;42935;50.966;16.992;2024-02-23T16:47:09;5;5;3
57049;PMS7003;42935;50.966;16.992;2024-02-23T16:50:30;7;5;3
57049;PMS7003;42935;50.966;16.992;2024-02-23T16:53:51;6;4;3
57049;PMS7003;42935;50.966;16.992;2024-02-23T16:57:10;5;4;3
57049;PMS7003;42935;50.966;16.992;2024-02-23T17:00:29;5;3;2
57049;PMS7003;42935;50.966;16.992;2024-02-23T17:03:48;6;3;2
57049;PMS7003;42935;50.966;16.992;2024-02-23T17:07:07;6;6;4
57049;PMS7003;42935;50.966;16.992;2024-02-23T17:10:33;8;6;4
57049;PMS7003;42935;50.966;16.992;2024-02-23T17:13:52;9;8;4
57049;PMS7003;42935;50.966;16.992;2024-02-23T17:17:15;9;7;5
57049;PMS7003;42935;50.966;16.992;2024-02-23T17:20:35;8;6;4
57049;PMS7003;42935;50.966;16.992;2024-02-23T17:23:58;8;8;5
57049;PMS7003;42935;50.966;16.992;2024-02-23T17:27:17;8;6;4
57049;PMS7003;42935;50.966;16.992;2024-02-23T17:30:40;9;6;5
57049;PMS7003;42935;50.966;16.992;2024-02-23T17:34:02;10;7;5
57049;PMS7003;42935;50.966;16.992;2024-02-23T17:37:23;13;8;5
57049;PMS7003;42935;50.966;16.992;2024-02-23T17:40:40;9;7;5
57049;PMS7003;42935;50.966;16.992;2024-02-23T17:44:05;8;6;4
57049;PMS7003;42935;50.966;16.992;2024-02-23T17:47:36;10;6;4
57049;PMS7003;42935;50.966;16.992;2024-02-23T17:50:55;8;5;4
57049;PMS7003;42935;50.966;16.992;2024-02-23T17:54:16;7;5;4
57049;PMS7003;42935;50.966;16.992;2024-02-23T17:57:36;5;4;3
57049;PMS7003;42935;50.966;16.992;2024-02-23T18:00:58;8;4;3
57049;PMS7003;42935;50.966;16.992;2024-02-23T18:04:18;4;4;2
57049;PMS7003;42935;50.966;16.992;2024-02-23T18:07:38;3;3;2
57049;PMS7003;42935;50.966;16.992;2024-02-23T18:11:34;7;5;4
57049;PMS7003;42935;50.966;16.992;2024-02-23T18:15:26;6;3;2
57049;PMS7003;42935;50.966;16.992;2024-02-23T18:18:47;6;4;2
57049;PMS7003;42935;50.966;16.992;2024-02-23T18:22:08;4;3;2
57049;PMS7003;42935;50.966;16.992;2024-02-23T18:25:27;3;2;2
57049;PMS7003;42935;50.966;16.992;2024-02-23T18:28:46;4;2;2
57049;PMS7003;42935;50.966;16.992;2024-02-23T18:32:05;7;4;3
57049;PMS7003;42935;50.966;16.992;2024-02-23T18:35:28;6;5;3
57049;PMS7003;42935;50.966;16.992;2024-02-23T18:38:50;6;4;3
57049;PMS7003;42935;50.966;16.992;2024-02-23T18:42:07;5;3;2
57049;PMS7003;42935;50.966;16.992;2024-02-23T18:45:29;7;4;2
57049;PMS7003;42935;50.966;16.992;2024-02-23T18:49:23;6;5;4
57049;PMS7003;42935;50.966;16.992;2024-02-23T18:52:51;5;4;4
57049;PMS7003;42935;50.966;16.992;2024-02-23T18:56:13;6;4;2
57049;PMS7003;42935;50.966;16.992;2024-02-23T18:59:34;7;5;4
57049;PMS7003;42935;50.966;16.992;2024-02-23T19:02:55;7;5;4
57049;PMS7003;42935;50.966;16.992;2024-02-23T19:06:16;9;5;3
57049;PMS7003;42935;50.966;16.992;2024-02-23T19:09:38;9;5;4
57049;PMS7003;42935;50.966;16.992;2024-02-23T19:13:00;11;6;3
57049;PMS7003;42935;50.966;16.992;2024-02-23T19:16:18;10;8;6
57049;PMS7003;42935;50.966;16.992;2024-02-23T19:19:42;13;9;6
57049;PMS7003;42935;50.966;16.992;2024-02-23T19:23:04;17;12;7
57049;PMS7003;42935;50.966;16.992;2024-02-23T19:26:22;14;13;8
57049;PMS7003;42935;50.966;16.992;2024-02-23T19:29:48;19;13;8
57049;PMS7003;42935;50.966;16.992;2024-02-23T19:33:09;16;13;9
57049;PMS7003;42935;50.966;16.992;2024-02-23T19:36:28;17;12;8
57049;PMS7003;42935;50.966;16.992;2024-02-23T19:39:47;28;22;14
57049;PMS7003;42935;50.966;16.992;2024-02-23T19:43:15;63;46;29
57049;PMS7003;42935;50.966;16.992;2024-02-23T19:46:36;45;38;26
57049;PMS7003;42935;50.966;16.992;2024-02-23T19:50:02;59;46;28
57049;PMS7003;42935;50.966;16.992;2024-02-23T19:53:24;80;58;35
57049;PMS7003;42935;50.966;16.992;2024-02-23T19:56:46;66;51;31
57049;PMS7003;42935;50.966;16.992;2024-02-23T20:00:12;70;51;32
57049;PMS7003;42935;50.966;16.992;2024-02-23T20:03:41;68;50;30
57049;PMS7003;42935;50.966;16.992;2024-02-23T20:07:06;42;32;20
57049;PMS7003;42935;50.966;16.992;2024-02-23T20:10:29;30;23;16
57049;PMS7003;42935;50.966;16.992;2024-02-23T20:13:57;34;28;17
57049;PMS7003;42935;50.966;16.992;2024-02-23T20:17:15;22;19;13
57049;PMS7003;42935;50.966;16.992;2024-02-23T20:20:40;23;20;13
57049;PMS7003;42935;50.966;16.992;2024-02-23T20:24:01;26;19;13
57049;PMS7003;42935;50.966;16.992;2024-02-23T20:27:26;53;41;26
57049;PMS7003;42935;50.966;16.992;2024-02-23T20:30:47;49;37;25
57049;PMS7003;42935;50.966;16.992;2024-02-23T20:34:19;56;40;25
57049;PMS7003;42935;50.966;16.992;2024-02-23T20:37:41;61;39;24
57049;PMS7003;42935;50.966;16.992;2024-02-23T20:41:15;47;33;18
57049;PMS7003;42935;50.966;16.992;2024-02-23T20:44:41;49;36;22
57049;PMS7003;42935;50.966;16.992;2024-02-23T20:48:04;56;43;26
57049;PMS7003;42935;50.966;16.992;2024-02-23T20:51:22;50;37;23
57049;PMS7003;42935;50.966;16.992;2024-02-23T20:54:45;51;35;21
57049;PMS7003;42935;50.966;16.992;2024-02-23T20:58:10;55;38;22
57049;PMS7003;42935;50.966;16.992;2024-02-23T21:01:43;74;53;32
57049;PMS7003;42935;50.966;16.992;2024-02-23T21:05:11;75;54;33
57049;PMS7003;42935;50.966;16.992;2024-02-23T21:08:34;66;48;30
57049;PMS7003;42935;50.966;16.992;2024-02-23T21:12:04;70;51;32
57049;PMS7003;42935;50.966;16.992;2024-02-23T21:15:28;67;50;31
57049;PMS7003;42935;50.966;16.992;2024-02-23T21:18:52;52;40;25
57049;PMS7003;42935;50.966;16.992;2024-02-23T21:22:17;51;38;23
57049;PMS7003;42935;50.966;16.992;2024-02-23T21:25:46;50;38;24
57049;PMS7003;42935;50.966;16.992;2024-02-23T21:29:06;51;34;21
57049;PMS7003;42935;50.966;16.992;2024-02-23T21:32:30;50;37;24
57049;PMS7003;42935;50.966;16.992;2024-02-23T21:35:54;57;45;27
57049;PMS7003;42935;50.966;16.992;2024-02-23T21:39:10;50;42;26
57049;PMS7003;42935;50.966;16.992;2024-02-23T21:42:36;59;44;29
57049;PMS7003;42935;50.966;16.992;2024-02-23T21:45:52;50;40;26
57049;PMS7003;42935;50.966;16.992;2024-02-23T21:49:18;47;36;23
57049;PMS7003;42935;50.966;16.992;2024-02-23T21:52:47;41;33;21
57049;PMS7003;42935;50.966;16.992;2024-02-23T21:56:16;242;170;83
57049;PMS7003;42935;50.966;16.992;2024-02-23T21:59:35;38;33;18
57049;PMS7003;42935;50.966;16.992;2024-02-23T22:02:56;39;32;21
57049;PMS7003;42935;50.966;16.992;2024-02-23T22:06:21;29;26;17
57049;PMS7003;42935;50.966;16.992;2024-02-23T22:09:41;63;47;27
57049;PMS7003;42935;50.966;16.992;2024-02-23T22:13:12;74;54;33